createdAt,value
2019-02-17T00:00:59.299Z,78.60
2019-02-17T00:03:26.755Z,80.19
2019-02-17T00:05:54.221Z,78.70
2019-02-17T00:08:21.582Z,78.78
2019-02-17T00:10:49.053Z,79.27
2019-02-17T00:13:16.617Z,79.07
2019-02-17T00:15:44.361Z,79.13
2019-02-17T00:18:11.865Z,82.31
2019-02-17T00:20:39.366Z,79.37
2019-02-17T00:23:06.839Z,78.27
2019-02-17T00:25:34.354Z,77.66
2019-02-17T00:28:01.888Z,77.91
2019-02-17T00:30:29.483Z,77.61
2019-02-17T00:32:56.912Z,77.54
2019-02-17T00:35:24.360Z,77.99
2019-02-17T00:37:51.787Z,78.69
2019-02-17T00:40:19.252Z,78.97
2019-02-17T00:42:46.661Z,79.26
2019-02-17T00:45:14.134Z,79.58
2019-02-17T00:47:41.578Z,80.83
2019-02-17T00:50:09.456Z,79.57
2019-02-17T00:52:36.849Z,79.87
2019-02-17T00:55:04.701Z,79.23
2019-02-17T00:57:32.133Z,79.59
2019-02-17T00:59:59.641Z,79.92
2019-02-17T01:02:27.176Z,79.77
2019-02-17T01:04:54.646Z,79.46
2019-02-17T01:07:22.021Z,80.70
2019-02-17T01:09:49.473Z,79.32
2019-02-17T01:12:16.902Z,79.43
2019-02-17T01:14:44.362Z,79.44
2019-02-17T01:17:11.766Z,80.10
2019-02-17T01:19:39.225Z,79.92
2019-02-17T01:22:06.712Z,80.35
2019-02-17T01:24:34.276Z,81.57
2019-02-17T01:27:01.730Z,80.27
2019-02-17T01:29:29.533Z,81.43
2019-02-17T01:31:57.032Z,80.39
2019-02-17T01:34:24.473Z,81.06
2019-02-17T01:36:51.942Z,82.68
2019-02-17T01:39:19.386Z,81.37
2019-02-17T01:41:46.842Z,79.29
2019-02-17T01:44:14.278Z,79.26
2019-02-17T01:46:41.744Z,80.12
2019-02-17T01:49:09.193Z,79.54
2019-02-17T01:51:36.602Z,79.79
2019-02-17T01:54:04.058Z,79.87
2019-02-17T01:56:31.522Z,79.58
2019-02-17T01:58:58.909Z,80.14
2019-02-17T02:01:26.390Z,80.55
2019-02-17T02:03:53.820Z,80.26
2019-02-17T02:06:21.297Z,79.77
2019-02-17T02:08:48.800Z,79.62
2019-02-17T02:11:16.442Z,81.07
2019-02-17T02:13:44.073Z,82.40
2019-02-17T02:16:11.546Z,80.43
2019-02-17T02:18:39.391Z,81.23
2019-02-17T02:21:09.909Z,81.93
2019-02-17T02:23:37.461Z,80.24
2019-02-17T02:26:04.896Z,80.55
2019-02-17T02:28:32.783Z,84.22
2019-02-17T02:31:00.454Z,83.44
2019-02-17T02:33:27.983Z,84.09
2019-02-17T02:35:55.387Z,82.12
2019-02-17T02:38:22.876Z,80.64
2019-02-17T02:40:50.305Z,82.28
2019-02-17T02:43:17.821Z,83.38
2019-02-17T02:45:45.265Z,82.94
2019-02-17T02:48:12.674Z,82.39
2019-02-17T02:50:40.072Z,82.07
2019-02-17T02:53:07.505Z,80.93
2019-02-17T02:55:34.984Z,84.43
2019-02-17T02:58:02.491Z,84.16
2019-02-17T03:00:29.890Z,82.26
2019-02-17T03:02:57.346Z,80.89
2019-02-17T03:05:24.841Z,80.78
2019-02-17T03:07:52.226Z,80.39
2019-02-17T03:10:19.687Z,80.56
2019-02-17T03:12:47.157Z,81.76
2019-02-17T03:15:14.565Z,79.99
2019-02-17T03:17:41.991Z,80.70
2019-02-17T03:20:09.849Z,83.10
2019-02-17T03:22:37.259Z,81.41
2019-02-17T03:25:05.039Z,81.05
2019-02-17T03:27:32.466Z,82.07
2019-02-17T03:30:05.189Z,81.65
2019-02-17T03:32:29.309Z,79.54
2019-02-17T03:34:56.751Z,79.58
2019-02-17T03:37:24.248Z,79.88
2019-02-17T03:39:51.700Z,80.21
2019-02-17T03:42:19.155Z,81.67
2019-02-17T03:44:46.609Z,80.66
2019-02-17T03:47:14.085Z,80.77
2019-02-17T03:49:41.462Z,81.20
2019-02-17T03:52:08.982Z,82.66
2019-02-17T03:54:36.431Z,83.22
2019-02-17T03:57:03.893Z,83.62
2019-02-17T03:59:31.322Z,82.96
2019-02-17T04:01:58.834Z,82.12
2019-02-17T04:04:26.248Z,82.33
2019-02-17T04:06:53.781Z,83.80
2019-02-17T04:09:21.261Z,83.42
2019-02-17T04:11:48.632Z,83.21
2019-02-17T04:14:16.087Z,83.62
2019-02-17T04:16:43.627Z,86.28
2019-02-17T04:19:11.099Z,82.79
2019-02-17T04:21:38.525Z,81.46
2019-02-17T04:24:06.012Z,82.00
2019-02-17T04:26:33.608Z,82.12
2019-02-17T04:29:01.168Z,82.34
2019-02-17T04:31:28.599Z,82.45
2019-02-17T04:33:56.032Z,82.09
2019-02-17T04:36:23.380Z,82.08
2019-02-17T04:38:50.792Z,82.70
2019-02-17T04:41:18.212Z,82.72
2019-02-17T04:43:45.659Z,83.80
2019-02-17T04:46:13.026Z,85.04
2019-02-17T04:48:40.500Z,83.54
2019-02-17T04:51:07.927Z,84.14
2019-02-17T04:53:35.301Z,84.19
2019-02-17T04:56:02.803Z,84.14
2019-02-17T04:58:30.242Z,83.71
2019-02-17T05:00:57.690Z,89.96
2019-02-17T05:03:25.098Z,85.19
2019-02-17T05:05:52.549Z,81.63
2019-02-17T05:08:19.993Z,81.03
2019-02-17T05:10:47.349Z,80.90
2019-02-17T05:13:14.782Z,83.51
2019-02-17T05:15:42.246Z,82.71
2019-02-17T05:18:09.686Z,81.68
2019-02-17T05:20:37.127Z,82.57
2019-02-17T05:23:04.631Z,82.40
2019-02-17T05:25:32.119Z,85.02
2019-02-17T05:27:59.702Z,85.26
2019-02-17T05:30:27.257Z,83.17
2019-02-17T05:32:54.667Z,82.84
2019-02-17T05:35:22.089Z,82.46
2019-02-17T05:37:49.634Z,82.84
2019-02-17T05:40:17.017Z,83.18
2019-02-17T05:42:44.507Z,83.21
2019-02-17T05:45:12.108Z,83.20
2019-02-17T05:47:39.560Z,84.99
2019-02-17T05:50:06.948Z,85.01
2019-02-17T05:52:34.477Z,83.23
2019-02-17T05:55:01.933Z,87.13
2019-02-17T05:57:29.365Z,83.41
2019-02-17T05:59:56.883Z,82.79
2019-02-17T06:02:24.726Z,83.17
2019-02-17T06:04:52.379Z,83.17
2019-02-17T06:07:19.957Z,83.14
2019-02-17T06:09:47.522Z,81.51
2019-02-17T06:12:14.949Z,84.79
2019-02-17T06:14:42.629Z,83.19
2019-02-17T06:17:10.076Z,81.42
2019-02-17T06:19:37.512Z,83.53
2019-02-17T06:22:05.185Z,84.45
2019-02-17T06:24:32.792Z,85.09
2019-02-17T06:27:00.154Z,84.28
2019-02-17T06:29:27.734Z,81.92
2019-02-17T06:31:55.293Z,78.92
2019-02-17T06:34:22.666Z,79.49
2019-02-17T06:36:50.128Z,80.09
2019-02-17T06:39:17.615Z,82.21
2019-02-17T06:41:45.048Z,77.74
2019-02-17T06:44:12.505Z,76.76
2019-02-17T06:46:44.967Z,80.05
2019-02-17T06:49:12.361Z,76.76
2019-02-17T06:51:39.822Z,75.40
2019-02-17T06:54:07.245Z,74.96
2019-02-17T06:56:44.823Z,73.41
2019-02-17T06:59:12.248Z,73.61
2019-02-17T07:01:39.618Z,74.48
2019-02-17T07:04:07.027Z,75.79
2019-02-17T07:06:44.036Z,77.94
2019-02-17T07:09:11.522Z,77.17
2019-02-17T07:11:39.020Z,76.43
2019-02-17T07:14:06.412Z,77.64
2019-02-17T07:16:33.943Z,76.16
2019-02-17T07:19:01.384Z,75.55
2019-02-17T07:21:28.973Z,76.02
2019-02-17T07:23:56.522Z,76.69
2019-02-17T07:26:24.227Z,77.28
2019-02-17T07:28:51.761Z,77.48
2019-02-17T07:31:19.234Z,77.74
2019-02-17T07:33:46.747Z,78.31
2019-02-17T07:36:14.220Z,78.91
2019-02-17T07:38:41.648Z,78.04
2019-02-17T07:41:09.122Z,77.50
2019-02-17T07:43:36.516Z,77.85
2019-02-17T07:46:04.093Z,79.06
2019-02-17T07:48:31.821Z,76.41
2019-02-17T07:50:59.265Z,76.10
2019-02-17T07:53:26.746Z,76.06
2019-02-17T07:55:54.219Z,76.34
2019-02-17T07:58:21.637Z,76.46
2019-02-17T08:00:49.068Z,77.47
2019-02-17T08:03:16.507Z,75.46
2019-02-17T08:05:43.988Z,74.09
2019-02-17T08:08:11.510Z,74.26
2019-02-17T08:10:38.963Z,73.82
2019-02-17T08:13:06.347Z,73.61
2019-02-17T08:15:33.728Z,73.48
2019-02-17T08:18:01.178Z,73.12
2019-02-17T08:20:30.928Z,73.14
2019-02-17T08:22:58.373Z,73.42
2019-02-17T08:25:25.864Z,72.13
2019-02-17T08:27:53.377Z,70.56
2019-02-17T08:30:20.830Z,70.20
2019-02-17T08:32:48.237Z,70.94
2019-02-17T08:35:15.814Z,71.06
2019-02-17T08:37:43.461Z,67.00
2019-02-17T08:40:11.065Z,65.51
2019-02-17T08:42:38.595Z,65.47
2019-02-17T08:45:07.663Z,65.11
2019-02-17T08:47:35.949Z,65.84
2019-02-17T08:50:04.749Z,65.32
2019-02-17T08:52:32.207Z,66.74
2019-02-17T08:54:59.692Z,64.82
2019-02-17T08:57:27.174Z,65.04
2019-02-17T08:59:54.648Z,66.08
2019-02-17T09:02:22.148Z,64.13
2019-02-17T09:04:49.560Z,63.71
2019-02-17T09:07:17.144Z,63.25
2019-02-17T09:09:44.771Z,62.44
2019-02-17T09:12:12.222Z,62.96
2019-02-17T09:14:39.591Z,62.39
2019-02-17T09:17:07.044Z,62.63
2019-02-17T09:19:34.582Z,62.21
2019-02-17T09:22:02.019Z,62.73
2019-02-17T09:24:29.448Z,62.84
2019-02-17T09:26:56.942Z,64.02
2019-02-17T09:29:24.968Z,62.76
2019-02-17T09:31:52.358Z,62.45
2019-02-17T09:34:19.861Z,62.64
2019-02-17T09:36:47.403Z,63.35
2019-02-17T09:39:14.922Z,63.15
2019-02-17T09:41:42.354Z,63.30
2019-02-17T09:44:09.797Z,61.97
2019-02-17T09:46:37.243Z,61.14
2019-02-17T09:49:04.741Z,59.69
2019-02-17T09:51:32.171Z,59.58
2019-02-17T09:53:59.652Z,57.93
2019-02-17T09:56:27.068Z,57.29
2019-02-17T09:58:54.818Z,56.10
2019-02-17T10:01:22.269Z,55.16
2019-02-17T10:03:49.659Z,54.64
2019-02-17T10:06:17.954Z,56.10
2019-02-17T10:08:45.366Z,56.29
2019-02-17T10:11:14.054Z,55.84
2019-02-17T10:13:41.577Z,56.83
2019-02-17T10:16:09.152Z,56.39
2019-02-17T10:18:36.739Z,56.82
2019-02-17T10:21:04.377Z,56.58
2019-02-17T10:23:31.773Z,56.50
2019-02-17T10:25:59.315Z,56.53
2019-02-17T10:28:26.838Z,56.57
2019-02-17T10:30:54.411Z,56.99
2019-02-17T10:33:23.023Z,56.00
2019-02-17T10:35:50.413Z,56.24
2019-02-17T10:38:18.035Z,54.60
2019-02-17T10:40:46.302Z,54.54
2019-02-17T10:43:14.329Z,54.20
2019-02-17T10:45:41.803Z,53.57
2019-02-17T10:48:09.230Z,52.75
2019-02-17T10:50:36.625Z,54.00
2019-02-17T10:53:04.308Z,52.53
2019-02-17T10:55:31.823Z,51.22
2019-02-17T10:57:59.361Z,52.12
2019-02-17T11:00:28.829Z,52.98
2019-02-17T11:03:02.842Z,52.38
2019-02-17T11:05:30.324Z,52.59
2019-02-17T11:07:57.783Z,50.71
2019-02-17T11:10:25.231Z,50.22
2019-02-17T11:12:52.672Z,48.51
2019-02-17T11:15:20.207Z,48.99
2019-02-17T11:17:47.623Z,49.96
2019-02-17T11:20:15.084Z,49.73
2019-02-17T11:22:42.542Z,49.00
2019-02-17T11:25:10.051Z,48.96
2019-02-17T11:27:37.599Z,48.46
2019-02-17T11:30:06.937Z,48.04
2019-02-17T11:32:34.469Z,47.92
2019-02-17T11:35:02.381Z,46.40
2019-02-17T11:37:30.023Z,44.91
2019-02-17T11:39:57.511Z,44.52
2019-02-17T11:42:25.242Z,44.15
2019-02-17T11:44:52.791Z,45.04
2019-02-17T11:47:20.288Z,43.69
2019-02-17T11:49:48.013Z,43.79
2019-02-17T11:52:15.842Z,43.54
2019-02-17T11:54:43.258Z,43.77
2019-02-17T11:57:10.793Z,44.84
2019-02-17T11:59:38.161Z,45.77
2019-02-17T12:02:05.721Z,45.41
2019-02-17T12:04:33.864Z,45.32
2019-02-17T12:07:01.702Z,43.31
2019-02-17T12:09:29.072Z,42.91
2019-02-17T12:11:56.851Z,42.43
2019-02-17T12:14:32.857Z,42.19
2019-02-17T12:17:00.571Z,41.09
2019-02-17T12:19:28.048Z,41.11
2019-02-17T12:22:15.093Z,41.68
2019-02-17T12:24:49.817Z,40.53
2019-02-17T12:27:25.554Z,40.06
2019-02-17T12:29:57.348Z,39.44
2019-02-17T12:32:29.051Z,38.71
2019-02-17T12:34:56.608Z,38.45
2019-02-17T12:37:24.058Z,38.31
2019-02-17T12:39:51.524Z,37.00
2019-02-17T12:42:19.006Z,37.24
2019-02-17T12:44:46.575Z,36.90
2019-02-17T12:47:14.165Z,37.08
2019-02-17T12:49:41.573Z,36.62
2019-02-17T12:52:09.047Z,36.94
2019-02-17T12:54:36.515Z,38.61
2019-02-17T12:57:04.011Z,39.12
2019-02-17T12:59:31.439Z,39.24
2019-02-17T13:01:59.203Z,37.94
2019-02-17T13:04:26.596Z,38.49
2019-02-17T13:06:54.053Z,37.39
2019-02-17T13:09:21.517Z,36.87
2019-02-17T13:11:48.884Z,36.70
2019-02-17T13:14:16.337Z,36.10
2019-02-17T13:16:43.796Z,35.48
2019-02-17T13:19:11.224Z,35.38
2019-02-17T13:21:38.712Z,33.96
2019-02-17T13:24:06.062Z,34.23
2019-02-17T13:26:33.513Z,34.65
2019-02-17T13:29:00.986Z,34.30
2019-02-17T13:31:28.454Z,34.58
2019-02-17T13:33:55.839Z,34.16
2019-02-17T13:36:23.437Z,34.13
2019-02-17T13:38:50.938Z,33.70
2019-02-17T13:41:18.499Z,33.00
2019-02-17T13:43:45.882Z,33.36
2019-02-17T13:46:13.480Z,33.83
2019-02-17T13:48:40.992Z,33.80
2019-02-17T13:51:08.465Z,34.12
2019-02-17T13:53:35.971Z,33.29
2019-02-17T13:56:03.425Z,33.77
2019-02-17T13:58:30.882Z,33.39
2019-02-17T14:00:58.570Z,33.69
2019-02-17T14:03:26.027Z,33.35
2019-02-17T14:05:53.460Z,33.26
2019-02-17T14:08:21.054Z,33.56
2019-02-17T14:10:48.477Z,32.13
2019-02-17T14:13:15.936Z,32.23
2019-02-17T14:15:45.648Z,31.71
2019-02-17T14:18:13.137Z,32.29
2019-02-17T14:20:40.617Z,32.43
2019-02-17T14:23:08.043Z,32.51
2019-02-17T14:25:35.567Z,34.26
2019-02-17T14:28:03.222Z,31.53
2019-02-17T14:30:30.780Z,31.58
2019-02-17T14:32:58.140Z,32.25
2019-02-17T14:35:25.632Z,31.44
2019-02-17T14:37:53.071Z,31.75
2019-02-17T14:40:20.754Z,32.55
2019-02-17T14:42:48.209Z,32.95
2019-02-17T14:45:15.691Z,33.69
2019-02-17T14:47:43.256Z,34.95
2019-02-17T14:50:10.860Z,35.50
2019-02-17T14:52:38.303Z,35.40
2019-02-17T14:55:05.852Z,35.66
2019-02-17T14:57:33.282Z,35.34
2019-02-17T15:00:00.729Z,35.26
2019-02-17T15:02:28.117Z,34.27
2019-02-17T15:04:55.568Z,33.58
2019-02-17T15:07:23.026Z,33.52
2019-02-17T15:09:50.391Z,33.05
2019-02-17T15:12:17.834Z,33.00
2019-02-17T15:14:45.809Z,33.12
2019-02-17T15:17:14.784Z,34.01
2019-02-17T15:19:42.528Z,34.75
2019-02-17T15:22:09.970Z,34.84
2019-02-17T15:24:37.337Z,34.75
2019-02-17T15:27:04.786Z,35.10
2019-02-17T15:29:32.277Z,35.68
2019-02-17T15:31:59.945Z,36.20
2019-02-17T15:34:27.431Z,36.12
2019-02-17T15:36:54.827Z,36.22
2019-02-17T15:39:22.310Z,36.56
2019-02-17T15:41:49.739Z,36.70
2019-02-17T15:44:17.166Z,36.80
2019-02-17T15:46:44.666Z,37.03
2019-02-17T15:49:12.245Z,37.41
2019-02-17T15:51:39.630Z,37.83
2019-02-17T15:54:07.097Z,38.42
2019-02-17T15:56:34.554Z,38.96
2019-02-17T15:59:01.924Z,39.57
2019-02-17T16:01:29.367Z,39.74
2019-02-17T16:03:56.800Z,40.07
2019-02-17T16:06:24.147Z,40.26
2019-02-17T16:08:52.410Z,39.91
2019-02-17T16:11:19.945Z,39.81
2019-02-17T16:13:47.313Z,39.40
2019-02-17T16:16:14.737Z,39.22
2019-02-17T16:18:42.171Z,39.36
2019-02-17T16:21:09.711Z,39.52
2019-02-17T16:23:37.226Z,39.57
2019-02-17T16:26:04.661Z,39.87
2019-02-17T16:28:32.115Z,39.96
2019-02-17T16:30:59.598Z,40.17
2019-02-17T16:33:27.106Z,40.64
2019-02-17T16:35:54.579Z,40.73
2019-02-17T16:38:22.053Z,40.95
2019-02-17T16:40:49.795Z,41.27
2019-02-17T16:43:17.186Z,41.80
2019-02-17T16:45:44.667Z,42.34
2019-02-17T16:48:12.118Z,42.77
2019-02-17T16:50:39.684Z,43.54
2019-02-17T16:53:07.130Z,43.65
2019-02-17T16:55:34.570Z,44.07
2019-02-17T16:58:02.057Z,44.41
2019-02-17T17:00:29.693Z,44.29
2019-02-17T17:02:58.223Z,44.48
2019-02-17T17:05:25.803Z,44.94
2019-02-17T17:07:53.986Z,45.36
2019-02-17T17:10:21.779Z,45.24
2019-02-17T17:12:49.262Z,45.60
2019-02-17T17:15:17.158Z,45.98
2019-02-17T17:17:44.717Z,45.86
2019-02-17T17:20:12.890Z,45.88
2019-02-17T17:22:40.442Z,46.20
2019-02-17T17:25:08.334Z,46.69
2019-02-17T17:27:35.833Z,46.79
2019-02-17T17:30:04.039Z,47.28
2019-02-17T17:32:31.565Z,47.09
2019-02-17T17:34:59.519Z,47.51
2019-02-17T17:37:27.252Z,47.69
2019-02-17T17:39:54.751Z,47.69
2019-02-17T17:42:22.140Z,47.72
2019-02-17T17:44:49.604Z,48.09
2019-02-17T17:47:17.177Z,47.91
2019-02-17T17:49:44.552Z,47.98
2019-02-17T17:52:12.122Z,47.91
2019-02-17T17:54:39.572Z,48.03
2019-02-17T17:57:07.019Z,48.93
2019-02-17T17:59:34.530Z,48.73
2019-02-17T18:02:01.947Z,48.88
2019-02-17T18:04:29.365Z,49.06
2019-02-17T18:06:57.209Z,49.31
2019-02-17T18:09:24.841Z,49.21
2019-02-17T18:11:52.240Z,49.40
2019-02-17T18:14:19.752Z,50.03
2019-02-17T18:16:47.225Z,50.02
2019-02-17T18:19:14.670Z,50.12
2019-02-17T18:21:42.025Z,50.22
2019-02-17T18:24:09.480Z,50.41
2019-02-17T18:26:36.912Z,51.30
2019-02-17T18:29:04.350Z,51.39
2019-02-17T18:31:31.776Z,51.75
2019-02-17T18:33:59.215Z,51.99
2019-02-17T18:36:26.649Z,51.60
2019-02-17T18:38:54.100Z,52.04
2019-02-17T18:41:21.510Z,51.63
2019-02-17T18:43:48.970Z,51.85
2019-02-17T18:46:16.398Z,51.95
2019-02-17T18:48:43.811Z,51.67
2019-02-17T18:51:11.310Z,52.96
2019-02-17T18:53:38.907Z,52.12
2019-02-17T18:56:06.343Z,51.59
2019-02-17T18:58:33.809Z,51.59
2019-02-17T19:01:01.249Z,51.51
2019-02-17T19:03:28.685Z,51.53
2019-02-17T19:05:56.178Z,51.30
2019-02-17T19:08:23.740Z,51.25
2019-02-17T19:10:52.036Z,51.35
2019-02-17T19:13:19.508Z,51.39
2019-02-17T19:15:47.015Z,51.64
2019-02-17T19:18:14.443Z,51.72
2019-02-17T19:20:42.083Z,51.60
2019-02-17T19:23:09.581Z,51.38
2019-02-17T19:25:37.176Z,51.40
2019-02-17T19:28:04.749Z,51.29
2019-02-17T19:30:32.670Z,51.61
2019-02-17T19:33:00.090Z,51.93
2019-02-17T19:35:27.571Z,52.02
2019-02-17T19:37:55.116Z,52.08
2019-02-17T19:40:22.657Z,51.92
2019-02-17T19:42:50.136Z,52.21
2019-02-17T19:45:18.526Z,52.16
2019-02-17T19:47:46.015Z,52.30
2019-02-17T19:50:13.697Z,52.11
2019-02-17T19:52:41.317Z,52.25
2019-02-17T19:55:10.026Z,52.30
2019-02-17T19:57:38.939Z,52.45
2019-02-17T20:00:10.587Z,52.18
2019-02-17T20:02:48.767Z,51.95
2019-02-17T20:05:18.705Z,52.39
2019-02-17T20:07:46.278Z,52.32
2019-02-17T20:10:13.743Z,52.18
2019-02-17T20:12:42.522Z,52.21
2019-02-17T20:15:09.945Z,52.35
2019-02-17T20:17:37.624Z,52.87
2019-02-17T20:20:05.262Z,53.03
2019-02-17T20:22:32.751Z,53.22
2019-02-17T20:25:00.519Z,53.19
2019-02-17T20:27:28.097Z,52.98
2019-02-17T20:29:56.404Z,53.25
2019-02-17T20:32:23.993Z,53.48
2019-02-17T20:34:51.743Z,53.24
2019-02-17T20:37:20.821Z,53.50
2019-02-17T20:39:48.308Z,54.30
2019-02-17T20:42:15.832Z,54.29
2019-02-17T20:44:43.710Z,54.28
2019-02-17T20:47:11.128Z,54.24
2019-02-17T20:49:38.585Z,54.92
2019-02-17T20:52:06.758Z,55.83
2019-02-17T20:54:34.366Z,55.38
2019-02-17T20:57:01.996Z,55.01
2019-02-17T20:59:29.440Z,56.51
2019-02-17T21:01:56.908Z,55.37
2019-02-17T21:04:24.466Z,55.44
2019-02-17T21:06:51.993Z,55.15
2019-02-17T21:09:19.640Z,54.79
2019-02-17T21:11:47.580Z,55.00
2019-02-17T21:14:15.261Z,55.08
2019-02-17T21:16:42.887Z,55.38
2019-02-17T21:19:10.428Z,54.98
2019-02-17T21:21:37.896Z,54.96
2019-02-17T21:24:05.742Z,55.42
2019-02-17T21:26:33.210Z,55.56
2019-02-17T21:29:00.781Z,55.83
2019-02-17T21:31:28.887Z,56.75
2019-02-17T21:34:08.485Z,57.37
2019-02-17T21:36:35.993Z,58.54
2019-02-17T21:39:04.479Z,58.99
2019-02-17T21:41:31.893Z,59.75
2019-02-17T21:43:59.366Z,60.42
2019-02-17T21:46:26.947Z,61.07
2019-02-17T21:48:54.441Z,61.59
2019-02-17T21:51:21.875Z,62.28
2019-02-17T21:53:49.322Z,63.13
2019-02-17T21:56:16.896Z,63.41
2019-02-17T21:58:44.433Z,63.23
2019-02-17T22:01:11.876Z,62.95
2019-02-17T22:03:39.322Z,63.60
2019-02-17T22:06:06.768Z,64.69
2019-02-17T22:08:34.282Z,64.53
2019-02-17T22:11:01.781Z,65.12
2019-02-17T22:13:29.162Z,66.79
2019-02-17T22:15:56.597Z,67.95
2019-02-17T22:18:24.174Z,66.11
2019-02-17T22:20:51.657Z,66.70
2019-02-17T22:23:19.138Z,66.53
2019-02-17T22:25:46.650Z,67.74
2019-02-17T22:28:14.098Z,68.25
2019-02-17T22:30:41.600Z,73.00
2019-02-17T22:33:09.057Z,70.00
2019-02-17T22:35:36.509Z,69.75
2019-02-17T22:38:03.926Z,70.21
2019-02-17T22:40:31.384Z,70.83
2019-02-17T22:42:58.982Z,71.45
2019-02-17T22:45:26.493Z,71.80
2019-02-17T22:47:53.933Z,72.30
2019-02-17T22:50:21.344Z,72.98
2019-02-17T22:52:48.844Z,72.91
2019-02-17T22:55:16.353Z,73.09
2019-02-17T22:57:43.800Z,72.59
2019-02-17T23:00:20.342Z,72.26
2019-02-17T23:02:47.889Z,72.60
2019-02-17T23:05:15.292Z,72.36
2019-02-17T23:07:42.816Z,75.31
2019-02-17T23:10:10.632Z,72.02
2019-02-17T23:12:38.139Z,71.15
2019-02-17T23:15:05.671Z,70.80
2019-02-17T23:17:33.123Z,71.07
2019-02-17T23:20:00.696Z,73.11
2019-02-17T23:22:28.154Z,72.18
2019-02-17T23:24:55.846Z,70.47
2019-02-17T23:27:23.404Z,71.33
2019-02-17T23:29:50.918Z,70.12
2019-02-17T23:32:18.538Z,69.20
2019-02-17T23:34:45.919Z,69.90
2019-02-17T23:37:13.425Z,70.53
2019-02-17T23:39:40.872Z,70.68
2019-02-17T23:42:08.371Z,71.92
2019-02-17T23:44:35.880Z,70.90
2019-02-17T23:47:03.282Z,71.18
2019-02-17T23:49:30.718Z,71.60
2019-02-17T23:51:58.182Z,76.36
2019-02-17T23:54:25.633Z,70.53
2019-02-17T23:56:53.096Z,71.27
2019-02-17T23:59:20.594Z,69.99
